Kakushu Maru — JG5688 — position and weather

sailwx.info

Track history (hours):
 
Tides and Currents Weather Stations Pressure Air Temp Water Temp Dewpoint Dewpoint Depression Visibility Wind Speed Wind Dir Waves Ship Positions

Kakushu Maru

Last reported at 2016-Apr-15 10:32 UTC. Time now 2016-Apr-29 06:03 UTC.
Position N 34°33' E 134°46'.
Warning: this ship's position is 13 days out of date.

Length 105 m; draft 4.7 m.

Type: Tanker. MMSI: 431101016.

Date/timePositionNaut miles runAvg speedWind from/ knotsBaromVisibWave heightAir tempDewpointWater temp
2016-Apr-15 10:32N 34°33' E 134°46'1313.6
2016-Apr-15 09:33N 34°37' E 135°02'1414.1
2016-Apr-15 08:33N 34°33' E 135°18'4 0.4
2016-Apr-14 22:33N 34°33' E 135°23'4 3.3
2016-Apr-14 21:28N 34°32' E 135°19'0 0.5
2016-Apr-14 20:33N 34°32' E 135°18'1312.9
2016-Apr-14 19:33N 34°36' E 135°03'237 6.8
2016-Apr-13 08:30N 33°53' E 130°21'1313.9
2016-Apr-13 07:33N 33°40' E 130°17'6 6.3
2016-Apr-13 06:32N 33°36' E 130°23'0 0.0
2016-Apr-13 05:32N 33°36' E 130°23'0 0.0
2016-Apr-13 04:32N 33°36' E 130°23'0 0.0
2016-Apr-13 03:32N 33°36' E 130°23'0 0.0
2016-Apr-13 02:14N 33°36' E 130°23'0 0.0
2016-Apr-13 01:32N 33°36' E 130°23'1 0.8
2016-Apr-13 00:33N 33°37' E 130°23'2 1.8
2016-Apr-12 23:32N 33°37' E 130°21'4 3.8
2016-Apr-12 22:33N 33°39' E 130°17'1211.8
2016-Apr-12 21:33N 33°51' E 130°21'228 6.3
2016-Apr-11 09:30N 34°35' E 134°52'1010.8
2016-Apr-11 08:33N 34°36' E 135°04'5 3.2
2016-Apr-11 07:08N 34°39' E 135°08'0 0.0
2016-Apr-11 06:26N 34°39' E 135°08'0 0.0
2016-Apr-11 05:20N 34°39' E 135°08'0 0.0
2016-Apr-11 04:08N 34°39' E 135°08'0 0.0
2016-Apr-11 03:26N 34°39' E 135°08'1 1.4
2016-Apr-11 02:33N 34°37' E 135°08'0 0.4
2016-Apr-11 01:25N 34°37' E 135°08'0 0.0
2016-Apr-11 00:31N 34°37' E 135°08'0 0.0
2016-Apr-10 23:19N 34°37' E 135°08'0 0.1
2016-Apr-10 22:31N 34°37' E 135°08'0 0.0
2016-Apr-10 21:31N 34°37' E 135°08'0 0.1
2016-Apr-10 20:33N 34°37' E 135°08'0 0.0
2016-Apr-10 19:33N 34°37' E 135°08'1 0.5
2016-Apr-10 18:33N 34°37' E 135°07'  
Track history (hours):
 
Tides and Currents Weather Stations Pressure Air Temp Water Temp Dewpoint Dewpoint Depression Visibility Wind Speed Wind Dir Waves Ship Positions

Kakushu Maru

Last reported at 2016-Apr-15 10:32 UTC. Time now 2016-Apr-29 06:03 UTC.
Position N 34°33' E 134°46'.
Warning: this ship's position is 13 days out of date.

Length 105 m; draft 4.7 m.

Type: Tanker. MMSI: 431101016.

Date/timePositionNaut miles runAvg speedWind from/ knotsBaromVisibWave heightAir tempDewpointWater temp
2016-Apr-15 10:32N 34°33' E 134°46'1313.6
2016-Apr-15 09:33N 34°37' E 135°02'1414.1
2016-Apr-15 08:33N 34°33' E 135°18'4 0.4
2016-Apr-14 22:33N 34°33' E 135°23'4 3.3
2016-Apr-14 21:28N 34°32' E 135°19'0 0.5
2016-Apr-14 20:33N 34°32' E 135°18'1312.9
2016-Apr-14 19:33N 34°36' E 135°03'237 6.8
2016-Apr-13 08:30N 33°53' E 130°21'1313.9
2016-Apr-13 07:33N 33°40' E 130°17'6 6.3
2016-Apr-13 06:32N 33°36' E 130°23'0 0.0
2016-Apr-13 05:32N 33°36' E 130°23'0 0.0
2016-Apr-13 04:32N 33°36' E 130°23'0 0.0
2016-Apr-13 03:32N 33°36' E 130°23'0 0.0
2016-Apr-13 02:14N 33°36' E 130°23'0 0.0
2016-Apr-13 01:32N 33°36' E 130°23'1 0.8
2016-Apr-13 00:33N 33°37' E 130°23'2 1.8
2016-Apr-12 23:32N 33°37' E 130°21'4 3.8
2016-Apr-12 22:33N 33°39' E 130°17'1211.8
2016-Apr-12 21:33N 33°51' E 130°21'228 6.3
2016-Apr-11 09:30N 34°35' E 134°52'1010.8
2016-Apr-11 08:33N 34°36' E 135°04'5 3.2
2016-Apr-11 07:08N 34°39' E 135°08'0 0.0
2016-Apr-11 06:26N 34°39' E 135°08'0 0.0
2016-Apr-11 05:20N 34°39' E 135°08'0 0.0
2016-Apr-11 04:08N 34°39' E 135°08'0 0.0
2016-Apr-11 03:26N 34°39' E 135°08'1 1.4
2016-Apr-11 02:33N 34°37' E 135°08'0 0.4
2016-Apr-11 01:25N 34°37' E 135°08'0 0.0
2016-Apr-11 00:31N 34°37' E 135°08'0 0.0
2016-Apr-10 23:19N 34°37' E 135°08'0 0.1
2016-Apr-10 22:31N 34°37' E 135°08'0 0.0
2016-Apr-10 21:31N 34°37' E 135°08'0 0.1
2016-Apr-10 20:33N 34°37' E 135°08'0 0.0
2016-Apr-10 19:33N 34°37' E 135°08'1 0.5
2016-Apr-10 18:33N 34°37' E 135°07'  

Dump ship's entire track history